Terminal Aerodrome Forecast
Issued by NWS Portland, OR

Home | Current Version | Previous Version | Text Only | Print | Product List | Glossary On
Versions: 1 2 3 4 5 6 7 8 9 10 11 12 13 14 15 16 17 18 19 20 21 22 23 24 25 26 27 28 29 30 31 32 33 34 35 36 37 38 39 40 41 42 43 44
000
FTUS46 KPQR 011720
TAFAST
TAF
KAST 011720Z 0118/0218 VRB04KT 5SM BR BKN050
     FM012000 32005KT P6SM SCT050
     FM020800 00000KT 4SM BR SCT007 BKN050
     FM021200 03003KT 1SM BR OVC007
     FM021700 07007KT P6SM SKC=

USA.gov is the U.S. government's official web portal to all federal, state and local government web resources and services.